Item Display Status Humidity-temperature Sensor

Elevation Above Sea Level: 3 m

 

Deployed Sensor

  • Serial Number: 20282688
  • NDBC Property Number: 42577
  • Start Date: 6/19/2020 (13:32:20 Z)
  • End Date: Currently Active
Relative Humidity [%]     6 entries per hour
Showing data from 7/24/2021 (11:00:00 Z) to 7/23/2021 (00:00:01 Z)
Previous Next [ Day | 3-Days | 7-Days ]
First Last
Prev [ Day | 3-Days | 7-Days ] Next
First Last

Start Time:     :
End Time:     :     
Time (in GMT) :00 :50 :40 :30 :20 :10
Previous Next [ Day | 3-Days | 7-Days ]
First Last
Prev [ Day | 3-Days | 7-Days ] Next
First Last


123 => good data
MM => data is determined as missing
-- => data not received/configured
Back to Top Back to Top
7/24/2021 11:00 to 10:10 87.44 86.33 86.10 85.57 85.13 84.76
7/24/2021 10:00 to 9:10 84.95 85.71 86.16 86.78 86.43 86.23
7/24/2021 09:00 to 8:10 85.83 86.10 86.23 86.74 86.41 87.44
7/24/2021 08:00 to 7:10 87.09 88.02 88.35 87.32 88.16 86.86
7/24/2021 07:00 to 6:10 86.31 86.35 85.32 86.51 87.38 88.90
7/24/2021 06:00 to 5:10 85.24 87.42 88.06 88.95 88.82 88.20
7/24/2021 05:00 to 4:10 88.49 86.00 84.31 84.06 83.81 82.60
7/24/2021 04:00 to 3:10 82.87 84.62 85.34 85.40 85.83 85.65
7/24/2021 03:00 to 2:10 86.91 86.60 87.17 86.55 85.98 86.66
7/24/2021 02:00 to 1:10 91.21 91.21 90.95 92.22 92.55 93.13
7/24/2021 01:00 to 0:10 92.43 91.73 90.35 90.41 86.43 85.09
7/24/2021 00:00 to 23:10 84.14 83.77 83.24 82.76 84.10 84.29
7/23/2021 23:00 to 22:10 85.28 84.10 83.46 83.07 82.91 82.72
7/23/2021 22:00 to 21:10 82.47 82.93 84.47 83.17 83.61 82.33
7/23/2021 21:00 to 20:10 81.67 81.34 80.74 80.56 80.43 83.53
7/23/2021 20:00 to 19:10 85.46 86.66 86.10 85.36 86.31 85.48
7/23/2021 19:00 to 18:10 86.43 86.39 87.89 87.50 86.99 87.81
7/23/2021 18:00 to 17:10 87.28 87.89 87.98 86.72 86.64 86.14
7/23/2021 17:00 to 16:10 87.32 87.94 87.61 86.66 87.38 87.92
7/23/2021 16:00 to 15:10 85.63 86.27 85.55 85.77 86.41 84.70
7/23/2021 15:00 to 14:10 81.84 82.85 87.30 83.77 83.71 84.27
7/23/2021 14:00 to 13:10 85.17 84.78 85.05 84.47 84.18 84.23
7/23/2021 13:00 to 12:10 83.92 83.73 84.18 82.52 84.86 87.24
7/23/2021 12:00 to 11:10 88.74 90.02 89.01 86.86 83.71 83.57
7/23/2021 11:00 to 10:10 83.50 84.53 85.01 85.07 83.77 82.49
7/23/2021 10:00 to 9:10 82.02 83.42 82.27 82.72 82.78 82.84
7/23/2021 09:00 to 8:10 83.20 84.91 83.71 82.43 81.53 83.15
7/23/2021 08:00 to 7:10 82.21 82.52 84.45 82.41 82.12 81.96
7/23/2021 07:00 to 6:10 83.48 83.65 82.58 82.33 83.28 83.17
7/23/2021 06:00 to 5:10 84.21 83.94 85.69 86.29 87.90 88.39
7/23/2021 05:00 to 4:10 89.67 89.03 89.94 89.56 89.83 90.10
7/23/2021 04:00 to 3:10 90.86 91.26 93.09 93.07 93.40 93.65
7/23/2021 03:00 to 2:10 93.36 93.69 94.49 95.32 95.69 94.33
7/23/2021 02:00 to 1:10 89.96 88.70 89.03 88.82 89.58 89.87
7/23/2021 01:00 to 0:10 88.72 88.23 89.77 90.24 90.45 88.99

 

 

 

Air Temperature [°C]     6 entries per hour
Showing data from 7/24/2021 (11:00:00 Z) to 7/23/2021 (00:00:01 Z)
Previous Next [ Day | 3-Days | 7-Days ]
First Last
Prev [ Day | 3-Days | 7-Days ] Next
First Last

Start Time:     :
End Time:     :     
Time (in GMT) :00 :50 :40 :30 :20 :10
Previous Next [ Day | 3-Days | 7-Days ]
First Last
Prev [ Day | 3-Days | 7-Days ] Next
First Last


123 => good data
MM => data is determined as missing
-- => data not received/configured
Back to Top Back to Top
7/24/2021 11:00 to 10:10 28.48 28.57 28.49 28.70 28.73 28.77
7/24/2021 10:00 to 9:10 28.67 28.47 28.41 28.46 28.42 28.53
7/24/2021 09:00 to 8:10 28.55 28.45 28.50 28.35 28.21 28.22
7/24/2021 08:00 to 7:10 28.15 28.17 28.07 28.14 27.86 28.43
7/24/2021 07:00 to 6:10 28.57 28.53 28.47 28.17 27.62 27.20
7/24/2021 06:00 to 5:10 28.08 28.43 28.38 28.45 28.40 28.38
7/24/2021 05:00 to 4:10 28.00 27.98 28.87 28.81 28.85 28.85
7/24/2021 04:00 to 3:10 28.81 28.81 28.56 28.55 28.52 28.59
7/24/2021 03:00 to 2:10 28.52 28.43 28.46 28.25 28.39 27.86
7/24/2021 02:00 to 1:10 27.59 27.47 27.32 27.16 26.66 26.43
7/24/2021 01:00 to 0:10 26.61 27.78 28.07 27.60 28.62 28.90
7/24/2021 00:00 to 23:10 28.80 28.97 28.95 29.06 29.03 28.87
7/23/2021 23:00 to 22:10 28.94 28.97 28.82 28.98 28.99 29.14
7/23/2021 22:00 to 21:10 29.03 28.98 29.09 29.03 28.93 29.05
7/23/2021 21:00 to 20:10 29.06 29.24 28.99 29.17 29.13 28.97
7/23/2021 20:00 to 19:10 28.98 28.78 28.62 28.61 28.53 28.71
7/23/2021 19:00 to 18:10 28.39 28.05 28.29 28.41 28.32 28.44
7/23/2021 18:00 to 17:10 28.20 28.13 28.00 27.87 27.90 27.88
7/23/2021 17:00 to 16:10 27.85 27.58 27.35 27.87 27.70 27.14
7/23/2021 16:00 to 15:10 27.88 28.52 28.23 28.31 28.28 28.29
7/23/2021 15:00 to 14:10 28.36 28.13 28.16 28.60 28.76 28.56
7/23/2021 14:00 to 13:10 28.53 28.63 28.51 28.66 28.62 28.77
7/23/2021 13:00 to 12:10 28.56 28.63 28.63 28.68 28.61 28.38
7/23/2021 12:00 to 11:10 28.29 28.00 28.07 28.43 28.76 28.74
7/23/2021 11:00 to 10:10 28.72 28.67 28.76 28.85 28.81 28.81
7/23/2021 10:00 to 9:10 28.80 28.73 28.79 28.77 28.80 28.80
7/23/2021 09:00 to 8:10 28.59 28.78 28.80 28.86 28.87 28.89
7/23/2021 08:00 to 7:10 28.81 28.88 28.94 28.85 28.87 28.87
7/23/2021 07:00 to 6:10 28.80 28.86 28.80 28.92 28.96 28.89
7/23/2021 06:00 to 5:10 28.82 28.79 28.78 28.59 28.43 28.31
7/23/2021 05:00 to 4:10 28.22 28.12 27.91 27.76 27.60 27.66
7/23/2021 04:00 to 3:10 27.54 27.37 27.31 27.15 27.03 26.86
7/23/2021 03:00 to 2:10 26.82 26.61 26.37 26.09 26.16 26.00
7/23/2021 02:00 to 1:10 26.99 27.40 27.47 27.36 27.38 27.37
7/23/2021 01:00 to 0:10 27.30 27.08 26.86 26.89 27.32 26.88